Time;durP1;ratioP1;P1;durP2;ratioP2;P2;SDS_P1;SDS_P2;PMS_P1;PMS_P2;Temp;Humidity;BMP_temperature;BMP_pressure;BME280_temperature;BME280_humidity;BME280_pressure;Samples;Min_cycle;Max_cycle;Signal;HPM_P1;HPM_P2
2023/10/11 00:01:02;;;;;;;13.83;12.30;;;15.40;99.90;;;;;;5065959;28;20199;-65
2023/10/11 00:03:35;;;;;;;13.70;12.37;;;15.30;99.90;;;;;;5065843;28;20203;-66
2023/10/11 00:06:05;;;;;;;14.83;11.90;;;15.40;99.90;;;;;;5066053;28;20290;-66
2023/10/11 00:08:40;;;;;;;14.67;11.83;;;15.30;99.90;;;;;;5065942;28;20366;-66
2023/10/11 00:11:08;;;;;;;13.30;11.93;;;15.40;99.90;;;;;;5065383;28;20190;-66
2023/10/11 00:13:36;;;;;;;12.80;11.50;;;15.40;99.90;;;;;;5066244;28;20208;-66
2023/10/11 00:16:08;;;;;;;12.53;11.43;;;15.30;99.90;;;;;;5071782;28;20207;-66
2023/10/11 00:18:36;;;;;;;15.63;11.80;;;15.30;99.90;;;;;;5084343;28;20195;-66
2023/10/11 00:21:10;;;;;;;14.80;11.70;;;15.30;99.90;;;;;;5065708;28;20924;-67
2023/10/11 00:23:42;;;;;;;14.20;11.00;;;15.30;99.90;;;;;;5065652;28;20195;-67
2023/10/11 00:26:11;;;;;;;13.93;11.20;;;15.30;99.90;;;;;;5065594;28;20192;-66
2023/10/11 00:28:38;;;;;;;14.93;11.17;;;15.30;99.90;;;;;;5065493;28;20300;-66
2023/10/11 00:31:12;;;;;;;12.60;11.40;;;15.30;99.90;;;;;;5065653;28;20223;-67
2023/10/11 00:33:39;;;;;;;15.60;10.87;;;15.30;99.90;;;;;;5072129;28;20199;-66
2023/10/11 00:36:06;;;;;;;13.10;11.27;;;15.20;99.90;;;;;;5077118;28;20207;-67
2023/10/11 00:38:43;;;;;;;14.37;11.40;;;15.20;99.90;;;;;;5065823;28;20211;-67
2023/10/11 00:41:17;;;;;;;13.03;11.63;;;15.20;99.90;;;;;;5065410;28;20242;-67
2023/10/11 00:43:47;;;;;;;14.33;11.00;;;15.20;99.90;;;;;;5065731;28;20206;-67
2023/10/11 00:46:18;;;;;;;12.00;10.73;;;15.20;99.90;;;;;;5065539;28;20207;-67
2023/10/11 00:48:52;;;;;;;14.90;10.80;;;15.20;99.90;;;;;;5064917;28;20230;-66
2023/10/11 00:51:20;;;;;;;13.23;10.83;;;15.20;99.90;;;;;;5064996;28;20215;-66
2023/10/11 00:53:47;;;;;;;11.47;9.77;;;15.20;99.90;;;;;;5065132;28;20207;-66
2023/10/11 00:56:16;;;;;;;11.70;9.87;;;15.20;99.90;;;;;;5065168;28;20644;-66
2023/10/11 00:58:44;;;;;;;12.63;9.57;;;15.10;99.90;;;;;;5065508;28;20239;-66
2023/10/11 01:01:14;;;;;;;10.67;9.57;;;15.20;99.90;;;;;;5065391;28;20210;-66
2023/10/11 01:03:41;;;;;;;12.00;8.97;;;15.20;99.90;;;;;;5065088;28;20288;-66
2023/10/11 01:06:10;;;;;;;10.47;9.37;;;15.20;99.90;;;;;;5065254;28;20531;-66
2023/10/11 01:08:39;;;;;;;12.27;9.90;;;15.20;99.90;;;;;;5063863;28;20239;-66
2023/10/11 01:11:12;;;;;;;15.80;9.27;;;15.20;99.90;;;;;;5065187;28;20207;-66
2023/10/11 01:13:41;;;;;;;10.93;9.13;;;15.20;99.90;;;;;;5065790;28;20268;-67
2023/10/11 01:16:10;;;;;;;9.67;8.73;;;15.20;99.90;;;;;;5071560;28;20210;-66
2023/10/11 01:18:37;;;;;;;11.57;9.10;;;15.10;99.90;;;;;;5076042;28;20207;-66
2023/10/11 01:21:07;;;;;;;9.53;8.53;;;15.10;99.90;;;;;;5084761;28;20635;-66
2023/10/11 01:23:34;;;;;;;14.53;8.50;;;15.20;99.90;;;;;;5044584;28;20941;-66
2023/10/11 01:26:07;;;;;;;12.17;8.83;;;15.10;99.90;;;;;;5044186;28;20692;-66
2023/10/11 01:28:35;;;;;;;11.23;8.80;;;15.10;99.90;;;;;;5048072;28;20622;-66
2023/10/11 01:31:02;;;;;;;9.33;8.27;;;15.10;99.90;;;;;;5064449;28;20260;-66
2023/10/11 01:33:29;;;;;;;10.07;8.10;;;15.10;99.90;;;;;;5064216;28;20216;-66
2023/10/11 01:35:56;;;;;;;9.87;8.33;;;15.10;99.90;;;;;;5066185;28;20207;-66
2023/10/11 01:38:25;;;;;;;9.33;8.43;;;15.20;99.90;;;;;;5073500;28;20256;-66
2023/10/11 01:40:55;;;;;;;10.30;8.40;;;15.10;99.90;;;;;;5084543;28;20275;-66
2023/10/11 01:43:22;;;;;;;9.90;8.90;;;15.10;99.90;;;;;;5065076;28;20211;-66
2023/10/11 01:45:49;;;;;;;8.63;7.77;;;15.10;99.90;;;;;;5064082;28;20310;-66
2023/10/11 01:48:17;;;;;;;10.83;8.57;;;15.10;99.90;;;;;;5064151;28;20294;-66
2023/10/11 01:50:47;;;;;;;9.77;7.73;;;15.10;99.90;;;;;;5064639;28;20210;-66
2023/10/11 01:53:15;;;;;;;10.90;7.90;;;15.10;99.90;;;;;;5064208;28;20677;-66
2023/10/11 01:55:43;;;;;;;12.07;8.40;;;15.10;99.90;;;;;;5064121;28;20211;-66
2023/10/11 01:58:12;;;;;;;15.00;8.20;;;15.10;99.90;;;;;;5064375;28;20294;-66
2023/10/11 02:00:39;;;;;;;9.73;8.00;;;15.10;99.90;;;;;;5064607;28;20207;-66
2023/10/11 02:03:12;;;;;;;13.43;7.13;;;15.10;99.90;;;;;;5064059;28;20316;-66
2023/10/11 02:05:40;;;;;;;9.97;7.53;;;15.10;99.90;;;;;;5064444;28;20880;-66
2023/10/11 02:08:11;;;;;;;10.00;7.10;;;15.10;99.90;;;;;;5064409;28;20231;-66
2023/10/11 02:10:39;;;;;;;9.13;7.53;;;15.10;99.90;;;;;;5064569;28;20891;-66
2023/10/11 02:13:09;;;;;;;9.17;7.23;;;15.00;99.90;;;;;;5064110;28;20302;-66
2023/10/11 02:15:37;;;;;;;8.10;7.07;;;15.10;99.90;;;;;;5066587;28;20199;-66
2023/10/11 02:18:08;;;;;;;9.47;7.40;;;15.00;99.90;;;;;;5078276;28;20239;-66
2023/10/11 02:20:35;;;;;;;9.13;7.10;;;15.10;99.90;;;;;;5066594;28;20215;-65
2023/10/11 02:23:03;;;;;;;9.07;7.10;;;15.00;99.90;;;;;;5068281;28;21079;-66
2023/10/11 02:25:29;;;;;;;7.83;6.60;;;15.00;99.90;;;;;;5067734;28;20192;-66
2023/10/11 02:27:58;;;;;;;11.43;7.13;;;15.00;99.90;;;;;;5065829;28;20334;-66
2023/10/11 02:30:27;;;;;;;7.40;6.60;;;15.00;99.90;;;;;;5066110;28;20254;-66
2023/10/11 02:32:58;;;;;;;10.33;7.10;;;15.00;99.90;;;;;;5065703;28;20946;-66
2023/10/11 02:35:27;;;;;;;10.73;6.77;;;15.00;99.90;;;;;;5066430;28;20200;-66
2023/10/11 02:37:56;;;;;;;9.27;6.27;;;15.00;99.90;;;;;;5065896;28;20203;-66
2023/10/11 02:40:24;;;;;;;8.83;6.50;;;15.00;99.90;;;;;;5077760;28;20203;-66
2023/10/11 02:42:52;;;;;;;8.53;6.53;;;15.00;99.90;;;;;;5086522;28;20202;-66
2023/10/11 02:45:21;;;;;;;8.23;6.87;;;15.00;99.90;;;;;;5085996;28;20242;-66
2023/10/11 02:47:58;;;;;;;7.83;6.67;;;15.00;99.90;;;;;;5045650;28;20212;-66
2023/10/11 02:50:26;;;;;;;8.60;6.87;;;15.00;99.90;;;;;;5046131;28;20612;-66
2023/10/11 02:52:59;;;;;;;8.70;6.57;;;15.00;99.90;;;;;;5053308;28;20204;-66
2023/10/11 02:55:27;;;;;;;9.00;6.87;;;15.00;99.90;;;;;;5066486;28;20591;-66
2023/10/11 02:58:05;;;;;;;11.67;6.97;;;15.00;99.90;;;;;;5065303;28;20665;-65
2023/10/11 03:00:33;;;;;;;6.80;6.20;;;15.00;99.90;;;;;;5065520;28;20300;-65
2023/10/11 03:03:01;;;;;;;7.83;7.13;;;15.00;99.90;;;;;;5046645;28;20230;-66
2023/10/11 03:05:28;;;;;;;7.20;6.50;;;14.90;99.90;;;;;;5047447;28;20291;-66
2023/10/11 03:08:13;;;;;;;8.27;6.67;;;14.90;99.90;;;;;;5059613;28;20849;-66
2023/10/11 03:10:45;;;;;;;11.67;6.93;;;14.90;99.90;;;;;;5067229;28;20225;-66
2023/10/11 03:13:19;;;;;;;7.73;6.43;;;14.80;99.90;;;;;;5067088;28;20206;-66
2023/10/11 03:15:54;;;;;;;9.43;6.07;;;14.90;99.90;;;;;;5082170;28;20199;-66
2023/10/11 03:18:25;;;;;;;8.40;7.07;;;14.80;99.90;;;;;;5066900;28;20205;-66
2023/10/11 03:21:08;;;;;;;9.70;7.03;;;14.80;99.90;;;;;;5066990;28;20200;-66
2023/10/11 03:23:43;;;;;;;10.27;7.13;;;14.80;99.90;;;;;;5067396;28;20195;-66
2023/10/11 03:26:16;;;;;;;10.50;6.80;;;14.80;99.90;;;;;;5066421;28;20252;-66
2023/10/11 03:28:44;;;;;;;9.00;6.30;;;14.80;99.90;;;;;;5066699;28;20646;-66
2023/10/11 03:31:12;;;;;;;11.20;7.03;;;14.90;99.90;;;;;;5066192;28;20318;-66
2023/10/11 03:33:41;;;;;;;8.70;6.37;;;14.90;99.90;;;;;;5066298;28;20218;-66
2023/10/11 03:36:18;;;;;;;11.63;6.30;;;14.90;99.90;;;;;;5066945;28;20212;-66
2023/10/11 03:38:53;;;;;;;7.03;6.30;;;14.90;99.90;;;;;;5066937;28;20670;-66
2023/10/11 03:41:28;;;;;;;7.83;6.20;;;14.90;99.90;;;;;;5067024;28;20196;-66
2023/10/11 03:44:00;;;;;;;9.00;5.80;;;14.90;99.90;;;;;;5067076;28;20199;-66
2023/10/11 03:46:32;;;;;;;8.33;6.10;;;14.90;99.90;;;;;;5066710;28;20706;-66
2023/10/11 03:49:14;;;;;;;8.43;6.67;;;14.90;99.90;;;;;;5066431;28;20227;-66
2023/10/11 03:51:43;;;;;;;12.10;6.90;;;14.90;99.90;;;;;;5066684;28;20199;-66
2023/10/11 03:54:13;;;;;;;7.03;6.20;;;14.90;99.90;;;;;;5066570;28;20229;-66
2023/10/11 03:56:45;;;;;;;7.77;5.90;;;14.90;99.90;;;;;;5066205;28;20223;-66
2023/10/11 03:59:13;;;;;;;7.40;6.20;;;14.90;99.90;;;;;;5066286;28;20241;-66
2023/10/11 04:01:40;;;;;;;9.80;6.47;;;14.90;99.90;;;;;;5066434;28;20219;-67
2023/10/11 04:04:08;;;;;;;6.87;5.83;;;14.90;99.90;;;;;;5065721;28;20280;-66
2023/10/11 04:06:35;;;;;;;8.27;6.20;;;14.80;99.90;;;;;;5065764;28;20298;-66
2023/10/11 04:09:03;;;;;;;8.87;6.43;;;14.80;99.90;;;;;;5065734;28;20236;-66
2023/10/11 04:11:37;;;;;;;8.70;6.10;;;14.80;99.90;;;;;;5065801;28;20795;-66
2023/10/11 04:14:12;;;;;;;6.93;5.67;;;14.70;99.90;;;;;;5065987;28;20210;-66
2023/10/11 04:16:38;;;;;;;7.13;5.43;;;14.70;99.90;;;;;;5055287;28;20206;-66
2023/10/11 04:19:08;;;;;;;7.00;5.90;;;14.70;99.90;;;;;;5055912;28;20290;-66
2023/10/11 04:24:19;;;;;;;7.07;5.80;;;14.70;99.90;;;;;;5062897;28;20683;-66
2023/10/11 04:26:53;;;;;;;7.07;5.93;;;14.70;99.90;;;;;;5051455;28;20315;-66
2023/10/11 04:29:23;;;;;;;8.50;5.90;;;14.60;99.90;;;;;;5045816;28;20244;-66
2023/10/11 04:32:09;;;;;;;9.50;5.90;;;14.70;99.90;;;;;;5045614;28;20217;-66
2023/10/11 04:34:38;;;;;;;7.37;5.70;;;14.70;99.90;;;;;;5045693;28;20207;-66
2023/10/11 04:37:16;;;;;;;6.20;5.43;;;14.70;99.90;;;;;;5045414;28;20295;-66
2023/10/11 04:39:49;;;;;;;7.30;5.33;;;14.70;99.90;;;;;;5045566;28;20207;-66
2023/10/11 04:42:19;;;;;;;7.63;5.53;;;14.80;99.90;;;;;;5045538;28;20258;-66
2023/10/11 04:44:54;;;;;;;7.83;5.27;;;14.80;99.90;;;;;;5045395;28;20215;-66
2023/10/11 04:47:23;;;;;;;8.50;5.47;;;14.80;99.90;;;;;;5061840;28;20199;-66
2023/10/11 04:49:52;;;;;;;7.37;5.37;;;14.90;99.90;;;;;;5064834;28;20330;-66
2023/10/11 04:52:25;;;;;;;8.67;5.83;;;14.90;99.90;;;;;;5065205;28;20269;-66
2023/10/11 04:54:55;;;;;;;6.50;5.03;;;15.00;99.90;;;;;;5065471;28;20597;-66
2023/10/11 04:57:35;;;;;;;7.93;5.63;;;15.00;99.90;;;;;;5065475;28;20199;-66
2023/10/11 05:00:08;;;;;;;7.87;5.57;;;15.00;99.90;;;;;;5065322;28;20200;-66
2023/10/11 05:02:36;;;;;;;6.77;5.23;;;15.00;99.90;;;;;;5044550;28;20200;-66
2023/10/11 05:05:10;;;;;;;7.03;5.37;;;15.10;99.90;;;;;;5064937;28;20222;-66
2023/10/11 05:07:42;;;;;;;6.83;5.00;;;15.10;99.90;;;;;;5065517;28;20199;-67
2023/10/11 05:10:29;;;;;;;6.83;5.27;;;15.10;99.90;;;;;;5065507;28;20255;-66
2023/10/11 05:13:05;;;;;;;8.63;5.33;;;15.10;99.90;;;;;;5065288;28;20261;-67
2023/10/11 05:15:42;;;;;;;7.30;5.40;;;15.20;99.90;;;;;;5063590;28;20735;-66
2023/10/11 05:18:09;;;;;;;7.53;5.50;;;15.20;99.90;;;;;;5045030;28;20203;-66
2023/10/11 05:23:22;;;;;;;7.50;5.30;;;15.30;99.90;;;;;;5063304;28;20767;-66
2023/10/11 05:25:59;;;;;;;8.50;5.43;;;15.30;99.90;;;;;;5065068;28;20291;-66
2023/10/11 05:28:27;;;;;;;8.40;5.30;;;15.20;99.90;;;;;;5064926;28;20191;-66
2023/10/11 05:31:19;;;;;;;5.83;5.00;;;15.30;99.90;;;;;;5064875;28;20235;-66
2023/10/11 05:33:59;;;;;;;8.83;5.27;;;15.30;99.90;;;;;;5064990;28;20228;-65
2023/10/11 05:36:48;;;;;;;8.57;5.03;;;15.30;99.90;;;;;;5064884;28;20645;-65
2023/10/11 05:53:14;;;;;;;7.83;4.77;;;15.10;99.90;;;;;;5064588;28;20268;-65
2023/10/11 05:55:43;;;;;;;7.00;5.27;;;15.00;99.90;;;;;;5066826;28;20264;-65
2023/10/11 05:58:12;;;;;;;5.53;5.03;;;15.00;99.90;;;;;;5068643;28;20225;-65
2023/10/11 06:00:39;;;;;;;8.33;5.37;;;15.00;99.90;;;;;;5068797;28;20261;-66
2023/10/11 06:03:07;;;;;;;10.43;5.33;;;15.00;99.90;;;;;;5068479;28;20582;-65
2023/10/11 06:05:39;;;;;;;6.67;5.00;;;15.00;99.90;;;;;;5068481;28;20218;-65
2023/10/11 06:08:13;;;;;;;7.60;5.50;;;15.00;99.90;;;;;;5068136;28;20243;-65
2023/10/11 06:10:42;;;;;;;8.80;5.07;;;15.00;99.90;;;;;;5068398;28;20231;-65
2023/10/11 06:13:14;;;;;;;8.37;5.03;;;15.00;99.90;;;;;;5068079;28;20207;-65
2023/10/11 06:15:45;;;;;;;6.53;4.97;;;15.00;99.90;;;;;;5068173;28;20607;-66
2023/10/11 06:18:36;;;;;;;7.90;4.97;;;15.00;99.90;;;;;;5067775;28;20219;-66
2023/10/11 06:21:05;;;;;;;8.33;5.50;;;15.00;99.90;;;;;;5060143;28;20726;-67
2023/10/11 06:23:33;;;;;;;7.37;4.73;;;15.00;99.90;;;;;;5048101;28;20218;-67
2023/10/11 06:26:20;;;;;;;9.47;5.10;;;15.00;99.90;;;;;;5048077;28;20295;-66
2023/10/11 06:28:48;;;;;;;7.23;5.10;;;15.10;99.90;;;;;;5047533;28;20232;-66
2023/10/11 06:31:16;;;;;;;5.87;4.93;;;15.10;99.90;;;;;;5048070;28;20683;-66
2023/10/11 06:33:45;;;;;;;7.17;5.37;;;15.10;99.90;;;;;;5047791;28;20244;-66
2023/10/11 06:36:16;;;;;;;7.90;5.30;;;15.20;99.90;;;;;;5048417;28;20216;-66
2023/10/11 06:38:44;;;;;;;8.60;4.80;;;15.20;99.90;;;;;;5047983;28;20677;-66
2023/10/11 06:43:56;;;;;;;10.50;9.20;;;15.40;99.90;;;;;;5047994;28;20210;-66
2023/10/11 06:46:23;;;;;;;7.33;5.00;;;15.40;99.90;;;;;;5056641;28;20259;-66
2023/10/11 06:48:50;;;;;;;7.43;5.10;;;15.50;99.90;;;;;;5067740;28;20304;-66
2023/10/11 06:51:17;;;;;;;6.23;4.90;;;15.60;99.90;;;;;;5067600;28;20241;-67
2023/10/11 06:53:46;;;;;;;6.73;4.93;;;15.60;99.90;;;;;;5067810;28;20210;-66
2023/10/11 06:56:16;;;;;;;6.13;5.47;;;15.70;99.90;;;;;;5067248;28;20220;-67
2023/10/11 06:58:45;;;;;;;11.70;5.17;;;15.70;99.90;;;;;;5067219;28;20202;-67
2023/10/11 07:01:14;;;;;;;6.03;4.77;;;15.70;99.90;;;;;;5067104;28;20211;-68
2023/10/11 07:03:41;;;;;;;6.30;4.73;;;15.80;99.90;;;;;;5067321;28;20207;-67
2023/10/11 07:06:12;;;;;;;5.10;4.60;;;15.90;99.90;;;;;;5066186;28;20203;-66
2023/10/11 07:08:48;;;;;;;11.90;5.23;;;15.90;99.90;;;;;;5066674;28;20385;-67
2023/10/11 07:11:40;;;;;;;6.17;5.33;;;16.00;99.90;;;;;;5067134;28;20243;-66
2023/10/11 07:14:14;;;;;;;10.10;5.43;;;16.10;99.90;;;;;;5067092;28;20302;-66
2023/10/11 07:16:44;;;;;;;5.40;4.90;;;16.10;99.90;;;;;;5075657;28;20211;-67
2023/10/11 07:19:11;;;;;;;7.50;4.90;;;16.10;99.90;;;;;;5066946;28;20212;-66
2023/10/11 07:21:53;;;;;;;6.93;5.30;;;16.20;99.90;;;;;;5067468;28;20235;-66
2023/10/11 07:24:19;;;;;;;9.93;5.40;;;16.20;99.90;;;;;;5067371;28;20195;-67
2023/10/11 07:26:49;;;;;;;10.17;4.90;;;16.30;99.90;;;;;;5067319;28;20208;-67
2023/10/11 07:29:16;;;;;;;7.93;4.93;;;16.40;99.90;;;;;;5067206;28;20223;-66
2023/10/11 07:31:51;;;;;;;8.10;4.43;;;16.60;99.90;;;;;;5066894;28;20250;-66
2023/10/11 07:34:20;;;;;;;5.77;4.93;;;16.80;99.90;;;;;;5067230;28;20223;-66
2023/10/11 07:36:48;;;;;;;7.90;4.43;;;16.90;99.90;;;;;;5066950;28;20214;-66
2023/10/11 07:39:19;;;;;;;6.30;4.87;;;17.00;99.90;;;;;;5066617;28;20214;-66
2023/10/11 07:41:48;;;;;;;7.90;4.57;;;17.10;99.90;;;;;;5060538;28;20573;-66
2023/10/11 07:44:18;;;;;;;5.20;4.17;;;17.20;99.90;;;;;;5046467;28;20200;-66
2023/10/11 07:46:46;;;;;;;10.63;4.93;;;17.20;99.90;;;;;;5058165;28;20616;-66
2023/10/11 07:49:16;;;;;;;6.03;4.80;;;17.40;99.90;;;;;;5066363;28;20212;-66
2023/10/11 07:51:44;;;;;;;5.80;5.00;;;17.50;99.90;;;;;;5066844;28;20239;-66
2023/10/11 07:54:19;;;;;;;7.07;4.37;;;17.40;99.90;;;;;;5066182;28;20269;-66
2023/10/11 07:56:46;;;;;;;7.77;4.40;;;17.60;99.90;;;;;;5066574;28;20218;-66
2023/10/11 07:59:13;;;;;;;6.53;4.63;;;17.50;99.90;;;;;;5065877;28;20976;-66
2023/10/11 08:01:43;;;;;;;6.90;4.27;;;17.50;99.90;;;;;;5066203;28;20302;-66
2023/10/11 08:04:11;;;;;;;8.43;4.23;;;17.70;99.90;;;;;;5065391;28;20200;-66
2023/10/11 08:06:40;;;;;;;9.07;4.80;;;17.70;99.90;;;;;;5065986;28;20231;-66
2023/10/11 08:09:09;;;;;;;10.33;4.43;;;17.80;99.90;;;;;;5065796;28;20253;-66
2023/10/11 08:11:44;;;;;;;6.57;4.50;;;17.90;99.90;;;;;;5066060;28;20235;-66
2023/10/11 08:14:15;;;;;;;7.63;4.63;;;17.90;99.90;;;;;;5065885;28;20288;-67
2023/10/11 08:16:43;;;;;;;6.93;4.67;;;17.90;99.90;;;;;;5055399;28;20215;-66
2023/10/11 08:19:11;;;;;;;4.77;4.33;;;18.10;99.90;;;;;;5045465;28;20304;-66
2023/10/11 08:21:38;;;;;;;7.23;4.40;;;18.20;99.90;;;;;;5046014;28;20204;-66
2023/10/11 08:24:06;;;;;;;7.00;5.00;;;18.30;99.90;;;;;;5045931;28;20303;-66
2023/10/11 08:26:42;;;;;;;5.00;4.03;;;18.50;99.90;;;;;;5045736;28;20806;-66
2023/10/11 08:29:17;;;;;;;8.40;4.70;;;18.60;99.90;;;;;;5046616;28;20231;-66
2023/10/11 08:31:44;;;;;;;5.00;4.23;;;18.70;99.90;;;;;;5045908;28;20227;-66
2023/10/11 08:34:14;;;;;;;7.13;4.53;;;18.80;99.90;;;;;;5045426;28;20658;-66
2023/10/11 08:36:43;;;;;;;4.67;4.03;;;18.80;99.90;;;;;;5045778;28;20249;-66
2023/10/11 08:39:13;;;;;;;8.30;4.07;;;18.90;99.90;;;;;;5061397;28;20211;-66
2023/10/11 08:41:43;;;;;;;7.43;4.17;;;19.00;99.90;;;;;;5065835;28;20202;-66
2023/10/11 08:44:20;;;;;;;7.67;4.00;;;19.00;99.90;;;;;;5065311;28;20707;-66
2023/10/11 08:46:49;;;;;;;5.03;4.23;;;19.10;99.90;;;;;;5053964;28;20274;-66
2023/10/11 08:49:18;;;;;;;7.37;4.43;;;19.10;99.90;;;;;;5059229;28;20207;-66
2023/10/11 08:51:48;;;;;;;4.60;3.70;;;19.10;99.90;;;;;;5065441;28;20262;-66
2023/10/11 08:54:17;;;;;;;6.43;4.17;;;19.20;99.90;;;;;;5065240;28;20211;-66
2023/10/11 08:56:54;;;;;;;5.07;4.07;;;19.20;99.90;;;;;;5065186;28;20204;-66
2023/10/11 08:59:25;;;;;;;5.73;4.30;;;19.40;99.90;;;;;;5064836;28;20195;-66
2023/10/11 09:01:53;;;;;;;5.33;4.00;;;19.40;99.90;;;;;;5064958;28;20249;-66
2023/10/11 09:04:26;;;;;;;11.20;4.37;;;19.40;99.90;;;;;;5065002;28;20211;-66
2023/10/11 09:06:57;;;;;;;8.67;4.40;;;19.50;99.90;;;;;;5064694;28;20225;-67
2023/10/11 09:09:39;;;;;;;5.13;4.63;;;19.50;99.90;;;;;;5064721;28;20293;-66
2023/10/11 09:15:04;;;;;;;6.20;4.97;;;19.60;99.90;;;;;;5082535;28;20668;-66
2023/10/11 09:17:38;;;;;;;6.63;4.60;;;19.60;99.90;;;;;;5081793;28;20323;-66
2023/10/11 09:20:15;;;;;;;5.53;3.80;;;19.60;99.90;;;;;;5082624;28;20243;-66
2023/10/11 09:22:47;;;;;;;5.57;4.20;;;19.70;99.90;;;;;;5082441;28;20244;-66
2023/10/11 09:25:22;;;;;;;6.13;4.37;;;19.80;99.90;;;;;;5082701;28;20276;-65
2023/10/11 09:27:54;;;;;;;8.37;4.67;;;19.80;99.90;;;;;;5082170;28;20234;-66
2023/10/11 09:30:26;;;;;;;7.23;3.97;;;19.90;99.90;;;;;;5082061;28;20231;-65
2023/10/11 09:32:59;;;;;;;6.87;4.73;;;20.00;99.90;;;;;;5082014;28;20294;-65
2023/10/11 09:35:28;;;;;;;7.97;4.20;;;20.00;99.90;;;;;;5081946;28;20210;-66
2023/10/11 09:37:57;;;;;;;10.63;4.50;;;20.10;99.90;;;;;;5081831;28;20203;-65
2023/10/11 09:40:31;;;;;;;7.03;4.17;;;20.20;99.90;;;;;;5081737;28;20429;-65
2023/10/11 09:43:01;;;;;;;6.90;4.50;;;20.20;99.90;;;;;;5082175;28;20199;-66
2023/10/11 09:45:41;;;;;;;7.17;4.03;;;20.20;99.90;;;;;;5068801;28;20218;-65
2023/10/11 09:48:12;;;;;;;8.13;4.47;;;20.30;99.90;;;;;;5081489;28;20923;-66
2023/10/11 09:50:41;;;;;;;6.07;4.33;;;20.30;99.90;;;;;;5081700;28;20223;-65
2023/10/11 09:53:11;;;;;;;7.63;3.97;;;20.40;99.90;;;;;;5081150;28;20231;-65
2023/10/11 09:55:50;;;;;;;7.40;4.33;;;20.50;99.90;;;;;;5079050;28;20191;-65
2023/10/11 09:58:28;;;;;;;7.77;4.17;;;20.60;99.90;;;;;;5061541;28;20200;-66
2023/10/11 10:01:10;;;;;;;6.87;3.80;;;20.70;99.90;;;;;;5061341;28;20287;-66
2023/10/11 10:03:38;;;;;;;6.80;3.97;;;20.80;99.90;;;;;;5060997;28;20229;-66
2023/10/11 10:06:06;;;;;;;7.23;4.23;;;20.90;99.90;;;;;;5069078;28;20199;-65
2023/10/11 10:08:33;;;;;;;6.90;4.03;;;21.20;99.90;;;;;;5081169;28;20274;-66
2023/10/11 10:11:02;;;;;;;5.37;4.07;;;21.20;99.90;;;;;;5080975;28;21020;-66
2023/10/11 10:13:30;;;;;;;5.67;4.13;;;21.30;99.90;;;;;;5080977;28;20246;-66
2023/10/11 10:15:59;;;;;;;5.57;4.10;;;21.40;99.90;;;;;;5081197;28;20661;-66
2023/10/11 10:18:28;;;;;;;4.50;3.90;;;21.60;99.90;;;;;;5081251;28;20593;-66
2023/10/11 10:21:02;;;;;;;6.23;4.20;;;21.60;99.90;;;;;;5081160;28;20214;-66
2023/10/11 10:23:30;;;;;;;5.90;4.37;;;21.60;99.90;;;;;;5081406;28;20199;-66
2023/10/11 10:26:40;;;;;;;6.10;4.38;;;21.60;99.90;;;;;;5069991;28;20940;-66
2023/10/11 10:29:13;;;;;;;8.23;3.83;;;21.60;99.90;;;;;;5067597;28;20223;-66
2023/10/11 10:32:07;;;;;;;6.70;3.90;;;21.60;99.90;;;;;;5067852;28;20227;-66
2023/10/11 10:34:34;;;;;;;5.80;3.80;;;21.60;99.90;;;;;;5067049;28;20628;-66
2023/10/11 10:37:06;;;;;;;7.70;3.80;;;21.60;99.90;;;;;;5067354;28;20208;-66
2023/10/11 10:39:48;;;;;;;7.00;4.03;;;21.70;99.90;;;;;;5067746;28;20196;-66
2023/10/11 10:42:18;;;;;;;4.60;3.97;;;21.80;99.90;;;;;;5067479;28;20219;-66
2023/10/11 10:44:54;;;;;;;7.85;4.35;;;21.90;99.90;;;;;;5067553;28;20215;-66
2023/10/11 10:47:33;;;;;;;5.28;4.13;;;22.00;99.90;;;;;;5067417;28;20214;-66
2023/10/11 10:50:09;;;;;;;7.57;4.05;;;22.20;99.90;;;;;;5067026;28;20273;-66
2023/10/11 10:52:39;;;;;;;6.55;4.03;;;22.20;99.90;;;;;;5067073;28;20222;-66
2023/10/11 10:55:07;;;;;;;8.52;4.88;;;22.30;99.90;;;;;;5067113;28;20227;-66
2023/10/11 10:57:36;;;;;;;4.28;3.80;;;22.40;99.90;;;;;;5067227;28;20216;-66
2023/10/11 11:00:05;;;;;;;5.60;4.18;;;22.50;99.90;;;;;;5054666;28;20220;-66
2023/10/11 11:02:38;;;;;;;4.22;3.83;;;22.50;99.90;;;;;;5056094;28;20211;-66
2023/10/11 11:05:15;;;;;;;6.85;4.72;;;22.60;99.90;;;;;;5066645;28;20666;-66
2023/10/11 11:07:47;;;;;;;8.65;4.10;;;22.60;99.90;;;;;;5067101;28;20199;-66
2023/10/11 11:10:21;;;;;;;7.15;4.50;;;22.70;99.90;;;;;;5067142;28;20196;-66
2023/10/11 11:12:47;;;;;;;5.45;3.88;;;22.60;99.90;;;;;;5066327;28;20198;-66
2023/10/11 11:15:20;;;;;;;7.00;4.07;;;22.70;99.90;;;;;;5066624;28;20237;-66
2023/10/11 11:17:50;;;;;;;6.00;4.22;;;22.90;99.90;;;;;;5045990;28;20669;-66
2023/10/11 11:20:29;;;;;;;11.10;4.57;;;23.00;99.90;;;;;;5046653;28;20218;-66
2023/10/11 11:22:55;;;;;;;5.40;3.75;;;23.00;99.90;;;;;;5046788;28;20200;-66
2023/10/11 11:25:30;;;;;;;7.25;4.15;;;23.00;99.90;;;;;;5049262;28;20215;-66
2023/10/11 11:28:14;;;;;;;11.23;4.25;;;23.20;99.90;;;;;;5066368;28;20325;-66
2023/10/11 11:30:43;;;;;;;5.90;3.65;;;23.30;99.90;;;;;;5066468;28;20336;-66
2023/10/11 11:33:28;;;;;;;5.10;4.25;;;23.20;99.90;;;;;;5066092;28;20235;-66
2023/10/11 11:35:55;;;;;;;8.27;3.90;;;23.20;99.90;;;;;;5065760;28;20195;-66
2023/10/11 11:38:21;;;;;;;7.00;3.90;;;23.30;99.90;;;;;;5049280;28;20299;-66
2023/10/11 11:40:51;;;;;;;7.32;4.35;;;23.30;99.90;;;;;;5046512;28;20219;-66
2023/10/11 11:43:19;;;;;;;5.82;3.97;;;23.40;99.90;;;;;;5046299;28;20208;-66
2023/10/11 11:45:48;;;;;;;6.30;4.10;;;23.50;99.90;;;;;;5049301;28;20298;-66
2023/10/11 11:48:14;;;;;;;4.95;3.63;;;23.50;99.90;;;;;;5065606;28;20243;-67
2023/10/11 11:50:45;;;;;;;7.25;3.70;;;23.60;99.90;;;;;;5065987;28;20243;-66
2023/10/11 11:53:11;;;;;;;7.07;3.90;;;23.60;99.90;;;;;;5065732;28;20246;-66
2023/10/11 11:55:39;;;;;;;4.72;3.63;;;23.60;99.90;;;;;;5059539;28;20228;-67
2023/10/11 11:58:10;;;;;;;7.03;3.88;;;23.60;99.90;;;;;;5045587;28;20208;-66
2023/10/11 12:00:45;;;;;;;5.20;3.90;;;23.60;99.90;;;;;;5045924;28;20228;-66
2023/10/11 12:03:11;;;;;;;5.20;3.95;;;23.70;99.90;;;;;;5045468;28;20574;-66
2023/10/11 12:05:41;;;;;;;5.65;3.75;;;23.70;99.90;;;;;;5045927;28;20216;-66
2023/10/11 12:08:18;;;;;;;8.00;3.88;;;23.70;99.90;;;;;;5045844;28;20698;-66
2023/10/11 12:10:47;;;;;;;6.95;3.92;;;23.60;99.90;;;;;;5045735;28;20207;-66
2023/10/11 12:13:23;;;;;;;5.03;4.40;;;23.60;99.90;;;;;;5045255;28;20242;-67
2023/10/11 12:15:54;;;;;;;8.32;4.63;;;23.60;99.90;;;;;;5049181;28;20665;-66
2023/10/11 12:18:23;;;;;;;6.40;3.88;;;23.70;99.90;;;;;;5065669;28;20222;-66
2023/10/11 12:20:50;;;;;;;5.63;3.85;;;23.70;99.90;;;;;;5065681;28;20298;-66
2023/10/11 12:23:18;;;;;;;7.38;3.97;;;23.50;99.90;;;;;;5065452;28;20208;-66
2023/10/11 12:25:47;;;;;;;7.57;4.30;;;23.50;99.90;;;;;;5059742;28;20204;-66
2023/10/11 12:28:14;;;;;;;4.90;4.03;;;23.50;99.90;;;;;;5045321;28;20231;-66
2023/10/11 12:30:45;;;;;;;6.65;4.22;;;23.50;99.90;;;;;;5045174;28;20330;-66
2023/10/11 12:33:12;;;;;;;6.10;3.85;;;23.40;99.90;;;;;;5050125;28;20199;-66
2023/10/11 12:35:40;;;;;;;7.68;4.28;;;23.30;99.90;;;;;;5065270;28;20322;-66
2023/10/11 12:38:12;;;;;;;5.10;4.20;;;23.20;99.90;;;;;;5064792;28;20669;-67
2023/10/11 12:40:40;;;;;;;9.15;4.22;;;23.10;99.90;;;;;;5065143;28;20235;-66
2023/10/11 12:43:08;;;;;;;5.75;3.95;;;23.00;99.90;;;;;;5064894;28;20283;-66
2023/10/11 12:45:36;;;;;;;6.40;3.67;;;23.00;99.90;;;;;;5063122;28;20634;-66
2023/10/11 12:48:06;;;;;;;5.13;4.18;;;22.90;99.90;;;;;;5044344;28;20682;-66
2023/10/11 12:50:36;;;;;;;6.63;4.10;;;22.90;99.90;;;;;;5045311;28;20227;-66
2023/10/11 12:53:10;;;;;;;7.78;3.97;;;22.80;99.90;;;;;;5060904;28;20207;-66
2023/10/11 12:55:41;;;;;;;6.10;3.88;;;22.80;99.90;;;;;;5050445;28;20228;-66
2023/10/11 12:58:11;;;;;;;7.05;4.22;;;22.70;99.90;;;;;;5044910;28;20528;-66
2023/10/11 13:00:47;;;;;;;6.78;3.95;;;22.80;99.90;;;;;;5044769;28;20285;-66
2023/10/11 13:03:18;;;;;;;6.18;3.60;;;22.80;99.90;;;;;;5044853;28;20208;-66
2023/10/11 13:05:46;;;;;;;4.90;4.28;;;22.90;99.90;;;;;;5044808;28;20203;-66
2023/10/11 13:08:14;;;;;;;5.72;3.92;;;22.90;99.90;;;;;;5044770;28;20238;-66
2023/10/11 13:10:48;;;;;;;5.07;3.72;;;23.00;99.90;;;;;;5045031;28;20670;-66
2023/10/11 13:13:16;;;;;;;6.75;4.30;;;23.20;99.90;;;;;;5044615;28;20771;-67
2023/10/11 13:15:53;;;;;;;8.20;4.28;;;23.30;99.90;;;;;;5044828;28;20250;-66
2023/10/11 13:18:21;;;;;;;5.68;3.90;;;23.40;99.90;;;;;;5044906;28;20226;-66
2023/10/11 13:20:47;;;;;;;8.52;3.83;;;23.50;99.90;;;;;;5063670;28;20239;-66
2023/10/11 13:23:14;;;;;;;9.63;3.22;;;23.50;99.90;;;;;;5065139;28;20266;-66
2023/10/11 13:25:44;;;;;;;6.93;3.80;;;23.60;99.90;;;;;;5059654;28;20680;-66
2023/10/11 13:28:18;;;;;;;5.28;3.75;;;23.70;99.90;;;;;;5047656;28;20750;-66